createdAt,value
2018-06-24T00:01:04.577Z,5.20
2018-06-24T00:03:32.185Z,4.37
2018-06-24T00:05:59.828Z,4.53
2018-06-24T00:08:27.485Z,4.13
2018-06-24T00:10:55.116Z,3.93
2018-06-24T00:13:22.747Z,4.27
2018-06-24T00:15:50.891Z,4.10
2018-06-24T00:18:18.550Z,4.40
2018-06-24T00:20:46.171Z,5.50
2018-06-24T00:23:13.789Z,4.73
2018-06-24T00:25:42.119Z,5.20
2018-06-24T00:28:10.729Z,5.20
2018-06-24T00:30:38.816Z,5.00
2018-06-24T00:33:06.941Z,5.70
2018-06-24T00:35:34.744Z,4.30
2018-06-24T00:38:02.433Z,4.70
2018-06-24T00:40:30.089Z,4.93
2018-06-24T00:42:57.731Z,4.30
2018-06-24T00:45:25.361Z,5.20
2018-06-24T00:47:53.068Z,5.60
2018-06-24T00:50:20.727Z,5.13
2018-06-24T00:52:48.333Z,5.60
2018-06-24T00:55:16.893Z,5.07
2018-06-24T00:57:44.515Z,5.13
2018-06-24T01:00:14.560Z,5.80
2018-06-24T01:02:42.185Z,5.17
2018-06-24T01:05:10.897Z,5.63
2018-06-24T01:07:38.560Z,6.43
2018-06-24T01:10:06.196Z,6.97
2018-06-24T01:12:33.950Z,6.40
2018-06-24T01:15:01.609Z,7.10
2018-06-24T01:17:29.375Z,6.00
2018-06-24T01:19:58.283Z,6.70
2018-06-24T01:22:26.345Z,6.03
2018-06-24T01:24:54.850Z,6.60
2018-06-24T01:27:23.612Z,5.87
2018-06-24T01:29:51.400Z,5.77
2018-06-24T01:32:19.035Z,7.30
2018-06-24T01:34:46.679Z,5.90
2018-06-24T01:37:14.312Z,6.80
2018-06-24T01:39:42.632Z,5.83
2018-06-24T01:42:10.269Z,6.30
2018-06-24T01:44:37.903Z,6.23
2018-06-24T01:47:05.680Z,6.53
2018-06-24T01:49:34.205Z,6.30
2018-06-24T01:52:04.440Z,6.07
2018-06-24T01:54:32.113Z,7.20
2018-06-24T01:56:59.776Z,6.07
2018-06-24T01:59:27.449Z,6.33
2018-06-24T02:01:55.083Z,6.57
2018-06-24T02:04:22.976Z,6.00
2018-06-24T02:06:52.156Z,7.07
2018-06-24T02:09:19.781Z,5.60
2018-06-24T02:11:47.464Z,4.80
2018-06-24T02:14:15.080Z,5.20
2018-06-24T02:16:42.717Z,5.90
2018-06-24T02:19:11.680Z,6.63
2018-06-24T02:21:40.593Z,4.90
2018-06-24T02:24:08.429Z,5.30
2018-06-24T02:26:36.212Z,5.80
2018-06-24T02:29:04.864Z,5.40
2018-06-24T02:31:32.469Z,5.77
2018-06-24T02:34:00.105Z,6.40
2018-06-24T02:36:28.808Z,5.37
2018-06-24T02:38:56.421Z,6.00
2018-06-24T02:41:24.085Z,5.40
2018-06-24T02:43:51.717Z,5.40
2018-06-24T02:46:19.928Z,6.23
2018-06-24T02:48:47.509Z,5.60
2018-06-24T02:51:15.176Z,6.50
2018-06-24T02:53:43.005Z,5.00
2018-06-24T02:56:10.557Z,5.17
2018-06-24T02:58:38.265Z,5.50
2018-06-24T03:01:05.869Z,6.37
2018-06-24T03:03:34.379Z,6.30
2018-06-24T03:06:01.993Z,5.77
2018-06-24T03:08:29.612Z,5.83
2018-06-24T03:10:57.273Z,7.33
2018-06-24T03:13:25.014Z,6.00
2018-06-24T03:15:52.720Z,5.80
2018-06-24T03:18:20.393Z,5.23
2018-06-24T03:20:48.018Z,5.43
2018-06-24T03:23:15.798Z,5.57
2018-06-24T03:25:43.428Z,6.20
2018-06-24T03:28:11.061Z,5.60
2018-06-24T03:30:38.692Z,5.53
2018-06-24T03:33:06.345Z,5.57
2018-06-24T03:35:33.976Z,5.07
2018-06-24T03:38:01.581Z,5.13
2018-06-24T03:40:29.208Z,5.17
2018-06-24T03:42:57.409Z,4.60
2018-06-24T03:45:25.879Z,5.20
2018-06-24T03:47:53.516Z,8.13
2018-06-24T03:50:21.118Z,6.13
2018-06-24T03:52:48.781Z,5.40
2018-06-24T03:55:16.407Z,5.90
2018-06-24T03:57:44.016Z,5.23
2018-06-24T04:00:11.665Z,5.57
2018-06-24T04:02:39.344Z,4.83
2018-06-24T04:05:06.969Z,5.10
2018-06-24T04:07:34.611Z,4.93
2018-06-24T04:10:02.951Z,4.67
2018-06-24T04:12:30.649Z,5.43
2018-06-24T04:14:58.300Z,5.70
2018-06-24T04:17:26.020Z,5.00
2018-06-24T04:19:53.641Z,4.70
2018-06-24T04:22:21.534Z,5.90
2018-06-24T04:24:49.128Z,5.00
2018-06-24T04:27:16.757Z,5.17
2018-06-24T04:29:44.393Z,4.60
2018-06-24T04:32:12.012Z,4.70
2018-06-24T04:34:39.633Z,5.80
2018-06-24T04:37:07.314Z,4.40
2018-06-24T04:39:34.945Z,5.10
2018-06-24T04:42:02.579Z,6.17
2018-06-24T04:44:30.172Z,4.97
2018-06-24T04:46:57.813Z,4.87
2018-06-24T04:49:26.033Z,4.63
2018-06-24T04:51:53.749Z,4.87
2018-06-24T04:54:21.380Z,5.03
2018-06-24T04:56:48.984Z,4.77
2018-06-24T04:59:16.664Z,6.10
2018-06-24T05:01:44.288Z,5.40
2018-06-24T05:04:11.923Z,5.23
2018-06-24T05:06:39.689Z,5.30
2018-06-24T05:09:08.561Z,4.87
2018-06-24T05:11:36.207Z,4.70
2018-06-24T05:14:04.681Z,5.60
2018-06-24T05:16:33.098Z,5.23
2018-06-24T05:19:01.364Z,5.23
2018-06-24T05:21:29.129Z,5.10
2018-06-24T05:23:56.902Z,5.27
2018-06-24T05:26:24.765Z,5.47
2018-06-24T05:28:52.375Z,4.70
2018-06-24T05:31:19.992Z,4.27
2018-06-24T05:33:48.554Z,4.67
2018-06-24T05:36:16.181Z,5.27
2018-06-24T05:38:43.829Z,5.30
2018-06-24T05:41:11.520Z,5.43
2018-06-24T05:43:39.167Z,5.33
2018-06-24T05:46:06.788Z,5.33
2018-06-24T05:48:34.453Z,5.57
2018-06-24T05:51:03.180Z,5.60
2018-06-24T05:53:30.809Z,4.70
2018-06-24T05:55:58.416Z,5.77
2018-06-24T05:58:26.045Z,5.97
2018-06-24T06:00:53.697Z,5.10
2018-06-24T06:03:21.376Z,5.30
2018-06-24T06:05:48.994Z,4.80
2018-06-24T06:08:16.676Z,5.13
2018-06-24T06:10:44.289Z,4.60
2018-06-24T06:13:11.896Z,5.10
2018-06-24T06:15:39.525Z,5.13
2018-06-24T06:18:07.168Z,4.37
2018-06-24T06:20:34.834Z,5.00
2018-06-24T06:23:02.501Z,4.80
2018-06-24T06:25:30.137Z,4.70
2018-06-24T06:27:57.754Z,4.90
2018-06-24T06:30:25.493Z,4.40
2018-06-24T06:32:53.072Z,5.80
2018-06-24T06:35:20.728Z,4.03
2018-06-24T06:37:48.334Z,4.40
2018-06-24T06:40:15.992Z,4.97
2018-06-24T06:42:44.657Z,4.60
2018-06-24T06:45:12.429Z,4.83
2018-06-24T06:47:40.001Z,5.10
2018-06-24T06:50:07.635Z,4.03
2018-06-24T06:52:36.250Z,4.60
2018-06-24T06:55:04.556Z,3.93
2018-06-24T06:57:32.154Z,4.07
2018-06-24T06:59:59.803Z,4.27
2018-06-24T07:02:27.433Z,3.90
2018-06-24T07:04:55.042Z,4.17
2018-06-24T07:07:22.661Z,4.50
2018-06-24T07:09:50.249Z,4.00
2018-06-24T07:12:17.888Z,4.70
2018-06-24T07:14:45.519Z,4.67
2018-06-24T07:17:13.124Z,4.10
2018-06-24T07:19:40.900Z,4.10
2018-06-24T07:22:08.667Z,4.53
2018-06-24T07:24:37.345Z,4.23
2018-06-24T07:27:05.004Z,4.90
2018-06-24T07:29:32.624Z,4.70
2018-06-24T07:32:00.232Z,4.30
2018-06-24T07:34:28.884Z,4.53
2018-06-24T07:36:57.501Z,3.97
2018-06-24T07:39:25.159Z,4.73
2018-06-24T07:41:52.764Z,4.13
2018-06-24T07:44:20.307Z,4.07
2018-06-24T07:46:48.673Z,4.63
2018-06-24T07:49:16.300Z,3.77
2018-06-24T07:51:44.728Z,4.30
2018-06-24T07:54:12.492Z,3.63
2018-06-24T07:56:40.932Z,3.60
2018-06-24T07:59:08.549Z,3.70
2018-06-24T08:01:36.156Z,4.07
2018-06-24T08:04:03.956Z,4.90
2018-06-24T08:06:31.776Z,4.30
2018-06-24T08:08:59.381Z,4.00
2018-06-24T08:11:27.010Z,3.77
2018-06-24T08:13:54.636Z,3.97
2018-06-24T08:16:22.236Z,4.10
2018-06-24T08:18:49.832Z,4.73
2018-06-24T08:21:18.101Z,3.70
2018-06-24T08:23:45.736Z,4.13
2018-06-24T08:26:13.384Z,4.33
2018-06-24T08:28:41.017Z,3.70
2018-06-24T08:31:09.002Z,4.73
2018-06-24T08:33:36.624Z,3.60
2018-06-24T08:36:04.264Z,4.53
2018-06-24T08:38:31.859Z,3.90
2018-06-24T08:40:59.490Z,3.70
2018-06-24T08:43:27.116Z,3.23
2018-06-24T08:45:54.737Z,4.30
2018-06-24T08:48:22.377Z,3.97
2018-06-24T08:50:50.000Z,3.40
2018-06-24T08:53:18.212Z,3.83
2018-06-24T08:55:45.824Z,3.70
2018-06-24T08:58:14.446Z,4.13
2018-06-24T09:00:42.104Z,3.97
2018-06-24T09:03:09.740Z,3.77
2018-06-24T09:05:38.381Z,4.00
2018-06-24T09:08:06.079Z,3.63
2018-06-24T09:10:33.700Z,3.37
2018-06-24T09:13:01.322Z,3.50
2018-06-24T09:15:28.951Z,3.20
2018-06-24T09:17:56.600Z,3.40
2018-06-24T09:20:24.835Z,3.80
2018-06-24T09:22:52.472Z,3.37
2018-06-24T09:25:21.093Z,3.40
2018-06-24T09:27:48.725Z,3.57
2018-06-24T09:30:16.352Z,4.00
2018-06-24T09:32:43.980Z,3.77
2018-06-24T09:35:11.601Z,3.43
2018-06-24T09:37:39.233Z,3.50
2018-06-24T09:40:06.877Z,3.90
2018-06-24T09:42:34.532Z,3.90
2018-06-24T09:45:02.149Z,3.63
2018-06-24T09:47:30.459Z,3.83
2018-06-24T09:49:58.348Z,3.67
2018-06-24T09:52:29.039Z,3.23
2018-06-24T09:54:56.930Z,3.30
2018-06-24T09:57:26.856Z,3.40
2018-06-24T09:59:54.513Z,3.43
2018-06-24T10:02:22.176Z,2.77
2018-06-24T10:04:49.785Z,3.03
2018-06-24T10:07:17.396Z,3.63
2018-06-24T10:09:45.021Z,3.70
2018-06-24T10:12:12.649Z,4.07
2018-06-24T10:14:40.320Z,3.40
2018-06-24T10:17:08.293Z,3.20
2018-06-24T10:19:36.980Z,4.00
2018-06-24T10:22:04.600Z,3.83
2018-06-24T10:24:32.252Z,4.20
2018-06-24T10:27:00.860Z,3.80
2018-06-24T10:29:28.493Z,3.20
2018-06-24T10:31:56.088Z,3.10
2018-06-24T10:34:23.726Z,3.40
2018-06-24T10:36:51.332Z,3.93
2018-06-24T10:39:18.958Z,2.60
2018-06-24T10:41:46.583Z,2.83
2018-06-24T10:44:14.229Z,3.23
2018-06-24T10:46:41.852Z,3.17
2018-06-24T10:49:09.494Z,3.37
2018-06-24T10:51:37.102Z,3.37
2018-06-24T10:54:04.752Z,3.40
2018-06-24T10:56:32.349Z,2.67
2018-06-24T10:58:59.957Z,3.57
2018-06-24T11:01:27.569Z,3.10
2018-06-24T11:03:55.205Z,3.40
2018-06-24T11:06:22.826Z,3.20
2018-06-24T11:08:50.548Z,2.93
2018-06-24T11:11:18.172Z,3.33
2018-06-24T11:13:45.840Z,3.17
2018-06-24T11:16:13.477Z,3.43
2018-06-24T11:18:42.365Z,2.90
2018-06-24T11:21:10.013Z,3.40
2018-06-24T11:23:37.640Z,4.30
2018-06-24T11:26:06.331Z,3.53
2018-06-24T11:28:33.973Z,3.50
2018-06-24T11:31:01.601Z,3.43
2018-06-24T11:33:29.224Z,2.80
2018-06-24T11:35:57.456Z,3.60
2018-06-24T11:38:25.540Z,3.80
2018-06-24T11:40:53.139Z,3.63
2018-06-24T11:43:20.784Z,3.40
2018-06-24T11:45:49.017Z,3.27
2018-06-24T11:48:16.693Z,3.50
2018-06-24T11:50:45.357Z,4.00
2018-06-24T11:53:12.964Z,3.30
2018-06-24T11:55:40.728Z,3.57
2018-06-24T11:58:10.281Z,3.50
2018-06-24T12:00:38.243Z,3.70
2018-06-24T12:03:05.852Z,4.07
2018-06-24T12:05:33.505Z,3.20
2018-06-24T12:08:01.122Z,4.00
2018-06-24T12:10:28.752Z,3.00
2018-06-24T12:12:56.457Z,2.80
2018-06-24T12:15:24.330Z,3.80
2018-06-24T12:17:52.969Z,3.20
2018-06-24T12:20:20.572Z,3.97
2018-06-24T12:22:48.166Z,3.40
2018-06-24T12:25:15.788Z,2.70
2018-06-24T12:27:43.384Z,3.13
2018-06-24T12:30:10.992Z,2.57
2018-06-24T12:32:39.588Z,3.37
2018-06-24T12:35:07.221Z,3.00
2018-06-24T12:37:34.821Z,3.30
2018-06-24T12:40:02.513Z,3.20
2018-06-24T12:42:30.146Z,3.00
2018-06-24T12:44:57.779Z,3.30
2018-06-24T12:47:25.341Z,3.17
2018-06-24T12:49:54.694Z,3.20
2018-06-24T12:52:22.306Z,3.50
2018-06-24T12:54:49.954Z,3.40
2018-06-24T12:57:18.620Z,3.00
2018-06-24T12:59:46.575Z,2.90
2018-06-24T13:02:13.963Z,3.00
2018-06-24T13:04:41.832Z,2.90
2018-06-24T13:07:09.451Z,3.40
2018-06-24T13:09:37.084Z,3.10
2018-06-24T13:12:04.755Z,3.20
2018-06-24T13:14:32.420Z,3.03
2018-06-24T13:17:00.046Z,2.97
2018-06-24T13:19:27.672Z,2.60
2018-06-24T13:21:56.304Z,3.23
2018-06-24T13:24:23.939Z,3.07
2018-06-24T13:26:51.611Z,3.17
2018-06-24T13:29:19.274Z,3.33
2018-06-24T13:31:46.856Z,2.70
2018-06-24T13:34:14.469Z,2.80
2018-06-24T13:36:42.102Z,2.77
2018-06-24T13:39:10.608Z,3.57
2018-06-24T13:41:38.382Z,3.27
2018-06-24T13:44:06.268Z,3.00
2018-06-24T13:46:33.853Z,3.30
2018-06-24T13:49:01.452Z,3.53
2018-06-24T13:51:29.312Z,2.90
2018-06-24T13:53:57.607Z,2.23
2018-06-24T13:56:25.236Z,3.03
2018-06-24T13:58:52.822Z,2.50
2018-06-24T14:01:20.455Z,2.47
2018-06-24T14:03:48.084Z,2.90
2018-06-24T14:06:15.582Z,2.50
2018-06-24T14:08:43.885Z,2.23
2018-06-24T14:11:11.476Z,2.37
2018-06-24T14:13:39.076Z,2.10
2018-06-24T14:16:06.716Z,2.20
2018-06-24T14:18:34.316Z,2.70
2018-06-24T14:21:01.990Z,2.83
2018-06-24T14:23:29.723Z,2.60
2018-06-24T14:25:57.288Z,3.33
2018-06-24T14:28:25.676Z,2.80
2018-06-24T14:30:53.261Z,3.07
2018-06-24T14:33:20.897Z,3.10
2018-06-24T14:35:48.532Z,2.60
2018-06-24T14:38:16.165Z,2.90
2018-06-24T14:40:43.829Z,2.43
2018-06-24T14:43:11.474Z,2.57
2018-06-24T14:45:39.100Z,3.10
2018-06-24T14:48:06.871Z,2.53
2018-06-24T14:50:34.497Z,2.17
2018-06-24T14:53:02.125Z,3.30
2018-06-24T14:55:29.779Z,2.23
2018-06-24T14:57:57.342Z,2.57
2018-06-24T15:00:24.945Z,2.67
2018-06-24T15:02:52.633Z,2.00
2018-06-24T15:05:20.286Z,2.27
2018-06-24T15:07:48.088Z,2.10
2018-06-24T15:10:15.761Z,2.80
2018-06-24T15:12:46.250Z,2.70
2018-06-24T15:15:13.877Z,3.00
2018-06-24T15:17:41.528Z,2.90
2018-06-24T15:20:09.158Z,2.40
2018-06-24T15:22:36.769Z,3.13
2018-06-24T15:25:05.678Z,3.37
2018-06-24T15:27:33.269Z,3.27
2018-06-24T15:30:01.046Z,3.43
2018-06-24T15:32:28.638Z,3.80
2018-06-24T15:34:56.913Z,3.47
2018-06-24T15:37:24.557Z,3.30
2018-06-24T15:39:52.205Z,3.63
2018-06-24T15:42:19.811Z,3.40
2018-06-24T15:44:47.471Z,2.90
2018-06-24T15:47:15.226Z,3.50
2018-06-24T15:49:43.244Z,3.20
2018-06-24T15:52:10.872Z,2.90
2018-06-24T15:54:38.493Z,2.73
2018-06-24T15:57:06.128Z,2.63
2018-06-24T15:59:33.716Z,2.90
2018-06-24T16:02:01.342Z,2.97
2018-06-24T16:04:28.962Z,3.17
2018-06-24T16:06:56.593Z,3.60
2018-06-24T16:09:25.004Z,2.90
2018-06-24T16:11:52.638Z,3.97
2018-06-24T16:14:20.296Z,2.87
2018-06-24T16:16:47.936Z,3.30
2018-06-24T16:19:15.580Z,2.90
2018-06-24T16:21:43.240Z,2.90
2018-06-24T16:24:10.824Z,3.23
2018-06-24T16:26:38.520Z,2.90
2018-06-24T16:29:06.152Z,3.13
2018-06-24T16:31:33.744Z,3.20
2018-06-24T16:34:01.360Z,3.40
2018-06-24T16:36:28.988Z,3.30
2018-06-24T16:38:56.608Z,3.73
2018-06-24T16:41:25.085Z,3.77
2018-06-24T16:43:53.312Z,3.20
2018-06-24T16:46:21.996Z,3.30
2018-06-24T16:48:49.631Z,3.33
2018-06-24T16:51:17.278Z,3.10
2018-06-24T16:53:44.917Z,2.90
2018-06-24T16:56:12.536Z,2.83
2018-06-24T16:58:40.399Z,2.90
2018-06-24T17:01:07.808Z,2.77
2018-06-24T17:03:35.448Z,3.17
2018-06-24T17:06:03.074Z,2.70
2018-06-24T17:08:31.308Z,2.80
2018-06-24T17:10:58.975Z,2.93
2018-06-24T17:13:26.584Z,2.50
2018-06-24T17:15:54.201Z,2.47
2018-06-24T17:18:22.830Z,2.70
2018-06-24T17:20:50.445Z,2.90
2018-06-24T17:23:18.105Z,2.30
2018-06-24T17:25:45.749Z,2.60
2018-06-24T17:28:13.447Z,2.63
2018-06-24T17:30:41.098Z,2.63
2018-06-24T17:33:08.749Z,3.00
2018-06-24T17:35:36.389Z,3.10
2018-06-24T17:38:04.066Z,3.67
2018-06-24T17:40:32.791Z,2.60
2018-06-24T17:43:00.438Z,2.43
2018-06-24T17:45:28.131Z,2.90
2018-06-24T17:47:57.383Z,3.40
2018-06-24T17:50:25.000Z,2.93
2018-06-24T17:52:52.677Z,2.30
2018-06-24T17:55:20.312Z,2.80
2018-06-24T17:57:47.925Z,3.13
2018-06-24T18:00:16.561Z,4.70
2018-06-24T18:02:50.852Z,2.57
2018-06-24T18:05:18.488Z,2.70
2018-06-24T18:07:46.096Z,2.80
2018-06-24T18:10:14.107Z,3.30
2018-06-24T18:12:47.133Z,2.53
2018-06-24T18:15:15.674Z,2.43
2018-06-24T18:17:43.228Z,3.20
2018-06-24T18:20:10.821Z,3.07
2018-06-24T18:22:38.404Z,2.30
2018-06-24T18:25:06.020Z,3.20
2018-06-24T18:27:33.595Z,2.77
2018-06-24T18:30:01.205Z,3.00
2018-06-24T18:32:28.797Z,2.57
2018-06-24T18:34:56.363Z,2.27
2018-06-24T18:37:24.028Z,2.80
2018-06-24T18:39:52.361Z,2.53
2018-06-24T18:42:19.946Z,2.93
2018-06-24T18:44:48.557Z,3.30
2018-06-24T18:47:16.180Z,3.00
2018-06-24T18:49:43.759Z,2.90
2018-06-24T18:52:11.324Z,3.37
2018-06-24T18:54:38.920Z,2.63
2018-06-24T18:57:06.518Z,2.93
2018-06-24T18:59:34.224Z,2.50
2018-06-24T19:02:01.846Z,3.30
2018-06-24T19:04:29.474Z,2.73
2018-06-24T19:06:57.065Z,2.20
2018-06-24T19:09:24.665Z,2.63
2018-06-24T19:11:52.348Z,2.90
2018-06-24T19:14:19.930Z,2.50
2018-06-24T19:16:47.533Z,2.57
2018-06-24T19:19:15.187Z,2.67
2018-06-24T19:21:42.784Z,2.97
2018-06-24T19:24:10.401Z,3.47
2018-06-24T19:26:38.006Z,2.87
2018-06-24T19:29:05.630Z,3.37
2018-06-24T19:31:33.905Z,3.80
2018-06-24T19:34:01.510Z,2.83
2018-06-24T19:36:29.136Z,3.07
2018-06-24T19:38:56.790Z,2.93
2018-06-24T19:41:24.376Z,2.90
2018-06-24T19:43:51.995Z,3.63
2018-06-24T19:46:19.572Z,3.53
2018-06-24T19:48:47.224Z,4.20
2018-06-24T19:51:14.808Z,4.10
2018-06-24T19:53:42.388Z,3.23
2018-06-24T19:56:09.992Z,3.37
2018-06-24T19:58:37.596Z,5.53
2018-06-24T20:01:05.216Z,5.40
2018-06-24T20:03:32.788Z,3.30
2018-06-24T20:06:00.382Z,3.07
2018-06-24T20:08:27.956Z,4.43
2018-06-24T20:10:55.542Z,8.57
2018-06-24T20:13:23.140Z,5.20
2018-06-24T20:15:51.512Z,3.43
2018-06-24T20:18:19.165Z,5.17
2018-06-24T20:20:46.793Z,3.30
2018-06-24T20:23:14.385Z,5.93
2018-06-24T20:25:41.968Z,5.47
2018-06-24T20:28:09.600Z,4.23
2018-06-24T20:30:37.176Z,3.67
2018-06-24T20:33:05.804Z,3.70
2018-06-24T20:35:33.565Z,4.80
2018-06-24T20:38:01.664Z,3.93
2018-06-24T20:40:29.248Z,3.80
2018-06-24T20:42:56.839Z,3.40
2018-06-24T20:45:24.434Z,3.17
2018-06-24T20:47:52.084Z,4.47
2018-06-24T20:50:19.833Z,3.90
2018-06-24T20:52:47.298Z,3.83
2018-06-24T20:55:14.903Z,2.80
2018-06-24T20:57:42.495Z,19.60
2018-06-24T21:00:10.111Z,15.30
2018-06-24T21:02:37.678Z,5.17
2018-06-24T21:05:05.481Z,3.67
2018-06-24T21:07:33.076Z,3.70
2018-06-24T21:10:00.661Z,2.70
2018-06-24T21:12:28.284Z,4.17
2018-06-24T21:14:55.881Z,3.80
2018-06-24T21:17:23.524Z,3.90
2018-06-24T21:19:51.132Z,4.03
2018-06-24T21:22:18.720Z,4.00
2018-06-24T21:24:46.311Z,3.57
2018-06-24T21:27:13.960Z,4.13
2018-06-24T21:29:41.564Z,4.00
2018-06-24T21:32:09.279Z,4.87
2018-06-24T21:34:36.867Z,3.63
2018-06-24T21:37:05.508Z,3.13
2018-06-24T21:39:33.713Z,4.37
2018-06-24T21:42:01.292Z,3.87
2018-06-24T21:44:28.880Z,3.70
2018-06-24T21:46:56.458Z,3.53
2018-06-24T21:49:24.043Z,3.50
2018-06-24T21:51:52.819Z,3.70
2018-06-24T21:54:20.438Z,12.63
2018-06-24T21:56:48.356Z,5.17
2018-06-24T21:59:16.243Z,3.30
2018-06-24T22:01:43.833Z,3.67
2018-06-24T22:04:12.024Z,3.90
2018-06-24T22:06:40.210Z,3.27
2018-06-24T22:09:09.579Z,3.00
2018-06-24T22:11:37.301Z,4.30
2018-06-24T22:14:05.057Z,3.40
2018-06-24T22:16:32.689Z,3.50
2018-06-24T22:19:00.264Z,3.80
2018-06-24T22:21:27.889Z,3.60
2018-06-24T22:23:55.376Z,3.40
2018-06-24T22:26:23.084Z,3.50
2018-06-24T22:28:50.806Z,3.87
2018-06-24T22:31:18.424Z,3.37
2018-06-24T22:33:46.071Z,3.90
2018-06-24T22:36:13.672Z,3.87
2018-06-24T22:38:41.264Z,4.30
2018-06-24T22:41:08.856Z,3.93
2018-06-24T22:43:36.442Z,3.60
2018-06-24T22:46:04.056Z,4.17
2018-06-24T22:48:31.633Z,3.73
2018-06-24T22:50:59.229Z,3.47
2018-06-24T22:53:26.823Z,3.90
2018-06-24T22:55:54.456Z,3.57
2018-06-24T22:58:22.049Z,4.57
2018-06-24T23:00:49.718Z,3.33
2018-06-24T23:03:17.358Z,4.13
2018-06-24T23:05:44.964Z,4.33
2018-06-24T23:08:12.540Z,4.37
2018-06-24T23:10:40.889Z,4.67
2018-06-24T23:13:08.481Z,3.60
2018-06-24T23:15:36.136Z,4.70
2018-06-24T23:18:05.444Z,4.07
2018-06-24T23:20:33.016Z,4.67
2018-06-24T23:23:00.613Z,3.93
2018-06-24T23:25:28.359Z,4.70
2018-06-24T23:27:55.988Z,4.60
2018-06-24T23:30:23.607Z,4.70
2018-06-24T23:32:51.221Z,4.73
2018-06-24T23:35:18.812Z,4.20
2018-06-24T23:37:46.389Z,5.43
2018-06-24T23:40:13.989Z,5.00
2018-06-24T23:42:42.245Z,5.10
2018-06-24T23:45:09.895Z,4.90
2018-06-24T23:47:39.516Z,5.80
2018-06-24T23:50:07.128Z,5.70
2018-06-24T23:52:34.733Z,4.90
2018-06-24T23:55:02.313Z,5.80
2018-06-24T23:57:29.924Z,5.77
2018-06-24T23:59:57.528Z,5.40
